sensor_id;sensor_type;location;lat;lon;timestamp;temperature;humidity
10051;DHT22;5065;46.942;7.432;2023-01-09T00:00:48;8.80;99.90
10051;DHT22;5065;46.942;7.432;2023-01-09T00:03:15;8.80;99.90
10051;DHT22;5065;46.942;7.432;2023-01-09T00:05:42;8.80;99.90
10051;DHT22;5065;46.942;7.432;2023-01-09T00:08:10;8.80;99.90
10051;DHT22;5065;46.942;7.432;2023-01-09T00:10:37;8.90;99.90
10051;DHT22;5065;46.942;7.432;2023-01-09T00:13:04;8.90;99.90
10051;DHT22;5065;46.942;7.432;2023-01-09T00:15:32;8.80;99.90
10051;DHT22;5065;46.942;7.432;2023-01-09T00:18:00;8.90;99.90
10051;DHT22;5065;46.942;7.432;2023-01-09T00:20:27;8.80;99.90
10051;DHT22;5065;46.942;7.432;2023-01-09T00:22:54;8.80;99.90
10051;DHT22;5065;46.942;7.432;2023-01-09T00:25:21;8.80;99.90
10051;DHT22;5065;46.942;7.432;2023-01-09T00:27:49;8.80;99.90
10051;DHT22;5065;46.942;7.432;2023-01-09T00:30:16;8.80;99.90
10051;DHT22;5065;46.942;7.432;2023-01-09T00:32:43;8.70;99.90
10051;DHT22;5065;46.942;7.432;2023-01-09T00:35:15;8.70;99.90
10051;DHT22;5065;46.942;7.432;2023-01-09T00:37:42;8.70;99.90
10051;DHT22;5065;46.942;7.432;2023-01-09T00:40:13;8.70;99.90
10051;DHT22;5065;46.942;7.432;2023-01-09T00:42:41;8.70;99.90
10051;DHT22;5065;46.942;7.432;2023-01-09T00:45:13;8.60;99.90
10051;DHT22;5065;46.942;7.432;2023-01-09T00:47:45;8.60;99.90
10051;DHT22;5065;46.942;7.432;2023-01-09T00:50:16;8.50;99.90
10051;DHT22;5065;46.942;7.432;2023-01-09T00:52:46;8.50;99.90
10051;DHT22;5065;46.942;7.432;2023-01-09T00:55:14;8.60;99.90
10051;DHT22;5065;46.942;7.432;2023-01-09T00:57:41;8.60;99.90
10051;DHT22;5065;46.942;7.432;2023-01-09T01:00:10;8.60;99.90
10051;DHT22;5065;46.942;7.432;2023-01-09T01:02:37;8.60;99.90
10051;DHT22;5065;46.942;7.432;2023-01-09T01:05:05;8.70;99.90
10051;DHT22;5065;46.942;7.432;2023-01-09T01:07:51;8.60;99.90
10051;DHT22;5065;46.942;7.432;2023-01-09T01:10:21;8.60;99.90
10051;DHT22;5065;46.942;7.432;2023-01-09T01:12:49;8.60;99.90
10051;DHT22;5065;46.942;7.432;2023-01-09T01:15:17;8.60;99.90
10051;DHT22;5065;46.942;7.432;2023-01-09T01:17:45;8.70;99.90
10051;DHT22;5065;46.942;7.432;2023-01-09T01:20:14;8.70;99.90
10051;DHT22;5065;46.942;7.432;2023-01-09T01:22:41;8.70;99.90
10051;DHT22;5065;46.942;7.432;2023-01-09T01:25:11;8.80;99.90
10051;DHT22;5065;46.942;7.432;2023-01-09T01:27:38;8.80;99.90
10051;DHT22;5065;46.942;7.432;2023-01-09T01:30:07;8.80;99.90
10051;DHT22;5065;46.942;7.432;2023-01-09T01:32:35;8.80;99.90
10051;DHT22;5065;46.942;7.432;2023-01-09T01:35:03;8.80;99.90
10051;DHT22;5065;46.942;7.432;2023-01-09T01:37:30;8.70;99.90
10051;DHT22;5065;46.942;7.432;2023-01-09T01:39:57;8.60;99.90
10051;DHT22;5065;46.942;7.432;2023-01-09T01:42:26;8.50;99.90
10051;DHT22;5065;46.942;7.432;2023-01-09T01:45:03;8.50;99.90
10051;DHT22;5065;46.942;7.432;2023-01-09T01:47:40;8.50;99.90
10051;DHT22;5065;46.942;7.432;2023-01-09T01:50:14;8.40;99.90
10051;DHT22;5065;46.942;7.432;2023-01-09T01:52:46;8.40;99.90
10051;DHT22;5065;46.942;7.432;2023-01-09T01:55:14;8.40;99.90
10051;DHT22;5065;46.942;7.432;2023-01-09T01:57:48;8.30;99.90
10051;DHT22;5065;46.942;7.432;2023-01-09T02:00:18;8.30;99.90
10051;DHT22;5065;46.942;7.432;2023-01-09T02:02:48;8.20;99.90
10051;DHT22;5065;46.942;7.432;2023-01-09T02:05:15;8.20;99.90
10051;DHT22;5065;46.942;7.432;2023-01-09T02:07:44;8.10;99.90
10051;DHT22;5065;46.942;7.432;2023-01-09T02:10:11;8.20;99.90
10051;DHT22;5065;46.942;7.432;2023-01-09T02:12:38;8.20;99.90
10051;DHT22;5065;46.942;7.432;2023-01-09T02:15:10;8.10;99.90
10051;DHT22;5065;46.942;7.432;2023-01-09T02:18:00;8.10;99.90
10051;DHT22;5065;46.942;7.432;2023-01-09T02:20:51;8.00;99.90
10051;DHT22;5065;46.942;7.432;2023-01-09T02:23:37;8.00;99.90
10051;DHT22;5065;46.942;7.432;2023-01-09T02:26:33;8.00;99.90
10051;DHT22;5065;46.942;7.432;2023-01-09T02:32:18;8.00;99.90
10051;DHT22;5065;46.942;7.432;2023-01-09T02:34:54;7.90;99.90
10051;DHT22;5065;46.942;7.432;2023-01-09T02:37:30;7.90;99.90
10051;DHT22;5065;46.942;7.432;2023-01-09T02:40:10;7.90;99.90
10051;DHT22;5065;46.942;7.432;2023-01-09T02:42:42;7.80;99.90
10051;DHT22;5065;46.942;7.432;2023-01-09T02:45:10;7.80;99.90
10051;DHT22;5065;46.942;7.432;2023-01-09T02:47:41;7.80;99.90
10051;DHT22;5065;46.942;7.432;2023-01-09T02:50:11;7.70;99.90
10051;DHT22;5065;46.942;7.432;2023-01-09T02:53:10;7.70;99.90
10051;DHT22;5065;46.942;7.432;2023-01-09T02:55:54;7.70;99.90
10051;DHT22;5065;46.942;7.432;2023-01-09T02:58:35;7.80;99.90
10051;DHT22;5065;46.942;7.432;2023-01-09T03:01:21;7.70;99.90
10051;DHT22;5065;46.942;7.432;2023-01-09T03:03:58;7.80;99.90
10051;DHT22;5065;46.942;7.432;2023-01-09T03:06:31;7.80;99.90
10051;DHT22;5065;46.942;7.432;2023-01-09T03:09:04;7.80;99.90
10051;DHT22;5065;46.942;7.432;2023-01-09T03:11:35;7.70;99.90
10051;DHT22;5065;46.942;7.432;2023-01-09T03:14:07;7.70;99.90
10051;DHT22;5065;46.942;7.432;2023-01-09T03:16:37;7.70;99.90
10051;DHT22;5065;46.942;7.432;2023-01-09T03:19:10;7.60;99.90
10051;DHT22;5065;46.942;7.432;2023-01-09T03:21:39;7.60;99.90
10051;DHT22;5065;46.942;7.432;2023-01-09T03:24:06;7.60;99.90
10051;DHT22;5065;46.942;7.432;2023-01-09T03:26:34;7.60;99.90
10051;DHT22;5065;46.942;7.432;2023-01-09T03:29:01;7.60;99.90
10051;DHT22;5065;46.942;7.432;2023-01-09T03:31:28;7.60;99.90
10051;DHT22;5065;46.942;7.432;2023-01-09T03:33:56;7.60;99.90
10051;DHT22;5065;46.942;7.432;2023-01-09T03:36:24;7.60;99.90
10051;DHT22;5065;46.942;7.432;2023-01-09T03:38:51;7.60;99.90
10051;DHT22;5065;46.942;7.432;2023-01-09T03:41:19;7.60;99.90
10051;DHT22;5065;46.942;7.432;2023-01-09T03:43:46;7.60;99.90
10051;DHT22;5065;46.942;7.432;2023-01-09T03:46:14;7.60;99.90
10051;DHT22;5065;46.942;7.432;2023-01-09T03:48:41;7.60;99.90
10051;DHT22;5065;46.942;7.432;2023-01-09T03:51:09;7.60;99.90
10051;DHT22;5065;46.942;7.432;2023-01-09T03:53:40;7.60;99.90
10051;DHT22;5065;46.942;7.432;2023-01-09T03:56:08;7.60;99.90
10051;DHT22;5065;46.942;7.432;2023-01-09T03:58:35;7.60;99.90
10051;DHT22;5065;46.942;7.432;2023-01-09T04:01:04;7.60;99.90
10051;DHT22;5065;46.942;7.432;2023-01-09T04:03:33;7.60;99.90
10051;DHT22;5065;46.942;7.432;2023-01-09T04:06:01;7.60;99.90
10051;DHT22;5065;46.942;7.432;2023-01-09T04:08:28;7.60;99.90
10051;DHT22;5065;46.942;7.432;2023-01-09T04:10:57;7.60;99.90
10051;DHT22;5065;46.942;7.432;2023-01-09T04:13:24;7.60;99.90
10051;DHT22;5065;46.942;7.432;2023-01-09T04:15:51;7.70;99.90
10051;DHT22;5065;46.942;7.432;2023-01-09T04:18:19;7.70;99.90
10051;DHT22;5065;46.942;7.432;2023-01-09T04:20:47;7.70;99.90
10051;DHT22;5065;46.942;7.432;2023-01-09T04:23:14;7.70;99.90
10051;DHT22;5065;46.942;7.432;2023-01-09T04:25:41;7.70;99.90
10051;DHT22;5065;46.942;7.432;2023-01-09T04:28:10;7.70;99.90
10051;DHT22;5065;46.942;7.432;2023-01-09T04:30:37;7.70;99.90
10051;DHT22;5065;46.942;7.432;2023-01-09T04:33:04;7.60;99.90
10051;DHT22;5065;46.942;7.432;2023-01-09T04:35:33;7.70;99.90
10051;DHT22;5065;46.942;7.432;2023-01-09T04:38:00;7.60;99.90
10051;DHT22;5065;46.942;7.432;2023-01-09T04:40:27;7.60;99.90
10051;DHT22;5065;46.942;7.432;2023-01-09T04:42:54;7.60;99.90
10051;DHT22;5065;46.942;7.432;2023-01-09T04:45:22;7.70;99.90
10051;DHT22;5065;46.942;7.432;2023-01-09T04:47:50;7.60;99.90
10051;DHT22;5065;46.942;7.432;2023-01-09T04:50:17;7.60;99.90
10051;DHT22;5065;46.942;7.432;2023-01-09T04:52:44;7.60;99.90
10051;DHT22;5065;46.942;7.432;2023-01-09T04:55:11;7.50;99.90
10051;DHT22;5065;46.942;7.432;2023-01-09T04:57:38;7.50;99.90
10051;DHT22;5065;46.942;7.432;2023-01-09T05:00:06;7.40;99.90
10051;DHT22;5065;46.942;7.432;2023-01-09T05:02:38;7.40;99.90
10051;DHT22;5065;46.942;7.432;2023-01-09T05:05:09;7.40;99.90
10051;DHT22;5065;46.942;7.432;2023-01-09T05:07:36;7.40;99.90
10051;DHT22;5065;46.942;7.432;2023-01-09T05:10:04;7.40;99.90
10051;DHT22;5065;46.942;7.432;2023-01-09T05:12:32;7.40;99.90
10051;DHT22;5065;46.942;7.432;2023-01-09T05:15:00;7.40;99.90
10051;DHT22;5065;46.942;7.432;2023-01-09T05:17:28;7.40;99.90
10051;DHT22;5065;46.942;7.432;2023-01-09T05:19:57;7.40;99.90
10051;DHT22;5065;46.942;7.432;2023-01-09T05:22:25;7.40;99.90
10051;DHT22;5065;46.942;7.432;2023-01-09T05:24:52;7.40;99.90
10051;DHT22;5065;46.942;7.432;2023-01-09T05:27:19;7.40;99.90
10051;DHT22;5065;46.942;7.432;2023-01-09T05:29:47;7.30;99.90
10051;DHT22;5065;46.942;7.432;2023-01-09T05:32:14;7.30;99.90
10051;DHT22;5065;46.942;7.432;2023-01-09T05:34:41;7.30;99.90
10051;DHT22;5065;46.942;7.432;2023-01-09T05:37:09;7.30;99.90
10051;DHT22;5065;46.942;7.432;2023-01-09T05:39:37;7.30;99.90
10051;DHT22;5065;46.942;7.432;2023-01-09T05:42:04;7.20;99.90
10051;DHT22;5065;46.942;7.432;2023-01-09T05:44:31;7.20;99.90
10051;DHT22;5065;46.942;7.432;2023-01-09T05:46:58;7.20;99.90
10051;DHT22;5065;46.942;7.432;2023-01-09T05:49:28;7.20;99.90
10051;DHT22;5065;46.942;7.432;2023-01-09T05:51:55;7.20;99.90
10051;DHT22;5065;46.942;7.432;2023-01-09T05:54:23;7.10;99.90
10051;DHT22;5065;46.942;7.432;2023-01-09T05:56:51;7.10;99.90
10051;DHT22;5065;46.942;7.432;2023-01-09T05:59:18;7.10;99.90
10051;DHT22;5065;46.942;7.432;2023-01-09T06:01:46;7.10;99.90
10051;DHT22;5065;46.942;7.432;2023-01-09T06:04:13;7.10;99.90
10051;DHT22;5065;46.942;7.432;2023-01-09T06:06:40;7.10;99.90
10051;DHT22;5065;46.942;7.432;2023-01-09T06:09:07;7.00;99.90
10051;DHT22;5065;46.942;7.432;2023-01-09T06:11:36;7.10;99.90
10051;DHT22;5065;46.942;7.432;2023-01-09T06:14:03;7.00;99.90
10051;DHT22;5065;46.942;7.432;2023-01-09T06:16:31;7.10;99.90
10051;DHT22;5065;46.942;7.432;2023-01-09T06:18:58;7.10;99.90
10051;DHT22;5065;46.942;7.432;2023-01-09T06:21:25;7.00;99.90
10051;DHT22;5065;46.942;7.432;2023-01-09T06:23:54;6.90;99.90
10051;DHT22;5065;46.942;7.432;2023-01-09T06:26:21;7.00;99.90
10051;DHT22;5065;46.942;7.432;2023-01-09T06:28:50;7.00;99.90
10051;DHT22;5065;46.942;7.432;2023-01-09T06:31:20;7.00;99.90
10051;DHT22;5065;46.942;7.432;2023-01-09T06:33:47;7.00;99.90
10051;DHT22;5065;46.942;7.432;2023-01-09T06:36:15;7.00;99.90
10051;DHT22;5065;46.942;7.432;2023-01-09T06:38:45;7.10;99.90
10051;DHT22;5065;46.942;7.432;2023-01-09T06:41:12;7.10;99.90
10051;DHT22;5065;46.942;7.432;2023-01-09T06:43:39;7.10;99.90
10051;DHT22;5065;46.942;7.432;2023-01-09T06:46:08;7.10;99.90
10051;DHT22;5065;46.942;7.432;2023-01-09T06:48:36;7.10;99.90
10051;DHT22;5065;46.942;7.432;2023-01-09T06:51:03;7.10;99.90
10051;DHT22;5065;46.942;7.432;2023-01-09T06:53:30;7.10;99.90
10051;DHT22;5065;46.942;7.432;2023-01-09T06:55:57;7.00;99.90
10051;DHT22;5065;46.942;7.432;2023-01-09T06:58:26;7.10;99.90
10051;DHT22;5065;46.942;7.432;2023-01-09T07:00:53;7.10;99.90
10051;DHT22;5065;46.942;7.432;2023-01-09T07:03:22;7.10;99.90
10051;DHT22;5065;46.942;7.432;2023-01-09T07:05:49;7.10;99.90
10051;DHT22;5065;46.942;7.432;2023-01-09T07:08:16;7.10;99.90
10051;DHT22;5065;46.942;7.432;2023-01-09T07:10:44;7.10;99.90
10051;DHT22;5065;46.942;7.432;2023-01-09T07:13:11;7.20;99.90
10051;DHT22;5065;46.942;7.432;2023-01-09T07:15:38;7.20;99.90
10051;DHT22;5065;46.942;7.432;2023-01-09T07:18:05;7.20;99.90
10051;DHT22;5065;46.942;7.432;2023-01-09T07:20:39;7.30;99.90
10051;DHT22;5065;46.942;7.432;2023-01-09T07:23:06;7.30;99.90
10051;DHT22;5065;46.942;7.432;2023-01-09T07:25:36;7.30;99.90
10051;DHT22;5065;46.942;7.432;2023-01-09T07:28:04;7.30;99.90
10051;DHT22;5065;46.942;7.432;2023-01-09T07:30:31;7.30;99.90
10051;DHT22;5065;46.942;7.432;2023-01-09T07:32:59;7.30;99.90
10051;DHT22;5065;46.942;7.432;2023-01-09T07:35:27;7.30;99.90
10051;DHT22;5065;46.942;7.432;2023-01-09T07:37:56;7.30;99.90
10051;DHT22;5065;46.942;7.432;2023-01-09T07:40:23;7.30;99.90
10051;DHT22;5065;46.942;7.432;2023-01-09T07:42:51;7.30;99.90
10051;DHT22;5065;46.942;7.432;2023-01-09T07:45:19;7.30;99.90
10051;DHT22;5065;46.942;7.432;2023-01-09T07:47:46;7.30;99.90
10051;DHT22;5065;46.942;7.432;2023-01-09T07:50:13;7.30;99.90
10051;DHT22;5065;46.942;7.432;2023-01-09T07:52:44;7.20;99.90
10051;DHT22;5065;46.942;7.432;2023-01-09T07:55:13;7.20;99.90
10051;DHT22;5065;46.942;7.432;2023-01-09T07:57:40;7.20;99.90
10051;DHT22;5065;46.942;7.432;2023-01-09T08:00:08;7.20;99.90
10051;DHT22;5065;46.942;7.432;2023-01-09T08:02:38;7.20;99.90
10051;DHT22;5065;46.942;7.432;2023-01-09T08:05:08;7.20;99.90
10051;DHT22;5065;46.942;7.432;2023-01-09T08:07:39;7.20;99.90
10051;DHT22;5065;46.942;7.432;2023-01-09T08:10:07;7.20;99.90
10051;DHT22;5065;46.942;7.432;2023-01-09T08:12:36;7.20;99.90
10051;DHT22;5065;46.942;7.432;2023-01-09T08:15:04;7.20;99.90
10051;DHT22;5065;46.942;7.432;2023-01-09T08:17:31;7.30;99.90
10051;DHT22;5065;46.942;7.432;2023-01-09T08:19:58;7.30;99.90
10051;DHT22;5065;46.942;7.432;2023-01-09T08:22:25;7.30;99.90
10051;DHT22;5065;46.942;7.432;2023-01-09T08:24:53;7.30;99.90
10051;DHT22;5065;46.942;7.432;2023-01-09T08:27:20;7.30;99.90
10051;DHT22;5065;46.942;7.432;2023-01-09T08:29:48;7.30;99.90
10051;DHT22;5065;46.942;7.432;2023-01-09T08:32:15;7.40;99.90
10051;DHT22;5065;46.942;7.432;2023-01-09T08:34:42;7.40;99.90
10051;DHT22;5065;46.942;7.432;2023-01-09T08:37:09;7.50;99.90
10051;DHT22;5065;46.942;7.432;2023-01-09T08:39:37;7.50;99.90
10051;DHT22;5065;46.942;7.432;2023-01-09T08:42:04;7.50;99.90
10051;DHT22;5065;46.942;7.432;2023-01-09T08:44:50;7.60;99.90
10051;DHT22;5065;46.942;7.432;2023-01-09T08:47:34;7.60;99.90
10051;DHT22;5065;46.942;7.432;2023-01-09T08:50:02;7.70;99.90
10051;DHT22;5065;46.942;7.432;2023-01-09T08:52:29;7.70;99.90
10051;DHT22;5065;46.942;7.432;2023-01-09T08:54:57;7.70;99.90
10051;DHT22;5065;46.942;7.432;2023-01-09T08:57:24;7.70;99.90
10051;DHT22;5065;46.942;7.432;2023-01-09T08:59:53;7.60;99.90
10051;DHT22;5065;46.942;7.432;2023-01-09T09:02:20;7.70;99.90
10051;DHT22;5065;46.942;7.432;2023-01-09T09:04:48;7.70;99.90
10051;DHT22;5065;46.942;7.432;2023-01-09T09:07:17;7.70;99.90
10051;DHT22;5065;46.942;7.432;2023-01-09T09:09:51;7.70;99.90
10051;DHT22;5065;46.942;7.432;2023-01-09T09:12:19;7.70;99.90
10051;DHT22;5065;46.942;7.432;2023-01-09T09:14:47;7.70;99.90
10051;DHT22;5065;46.942;7.432;2023-01-09T09:17:36;7.70;99.90
10051;DHT22;5065;46.942;7.432;2023-01-09T09:20:06;7.70;99.90
10051;DHT22;5065;46.942;7.432;2023-01-09T09:22:34;7.80;99.90
10051;DHT22;5065;46.942;7.432;2023-01-09T09:25:01;7.80;99.90
10051;DHT22;5065;46.942;7.432;2023-01-09T09:27:29;7.90;99.90
10051;DHT22;5065;46.942;7.432;2023-01-09T09:29:57;8.00;99.90
10051;DHT22;5065;46.942;7.432;2023-01-09T09:32:24;8.10;99.90
10051;DHT22;5065;46.942;7.432;2023-01-09T09:34:53;8.10;99.90
10051;DHT22;5065;46.942;7.432;2023-01-09T09:37:20;8.20;99.90
10051;DHT22;5065;46.942;7.432;2023-01-09T09:39:47;8.30;99.90
10051;DHT22;5065;46.942;7.432;2023-01-09T09:42:29;8.30;99.90
10051;DHT22;5065;46.942;7.432;2023-01-09T09:45:25;8.40;99.90
10051;DHT22;5065;46.942;7.432;2023-01-09T09:48:03;8.40;99.90
10051;DHT22;5065;46.942;7.432;2023-01-09T09:50:55;8.50;99.90
10051;DHT22;5065;46.942;7.432;2023-01-09T09:53:28;8.50;99.90
10051;DHT22;5065;46.942;7.432;2023-01-09T09:55:56;8.50;99.90
10051;DHT22;5065;46.942;7.432;2023-01-09T09:58:28;8.60;99.90
10051;DHT22;5065;46.942;7.432;2023-01-09T10:00:58;8.60;99.90
10051;DHT22;5065;46.942;7.432;2023-01-09T10:03:29;8.60;99.90
10051;DHT22;5065;46.942;7.432;2023-01-09T10:05:59;8.70;99.90
10051;DHT22;5065;46.942;7.432;2023-01-09T10:08:35;8.70;99.90
10051;DHT22;5065;46.942;7.432;2023-01-09T10:11:04;8.70;99.90
10051;DHT22;5065;46.942;7.432;2023-01-09T10:13:35;8.80;99.90
10051;DHT22;5065;46.942;7.432;2023-01-09T10:16:30;8.90;99.90
10051;DHT22;5065;46.942;7.432;2023-01-09T10:19:07;8.80;99.90
10051;DHT22;5065;46.942;7.432;2023-01-09T10:21:41;8.80;99.90
10051;DHT22;5065;46.942;7.432;2023-01-09T10:24:20;8.80;99.90
10051;DHT22;5065;46.942;7.432;2023-01-09T10:26:52;8.70;99.90
10051;DHT22;5065;46.942;7.432;2023-01-09T10:29:47;8.60;99.90
10051;DHT22;5065;46.942;7.432;2023-01-09T10:32:34;8.50;99.90
10051;DHT22;5065;46.942;7.432;2023-01-09T10:35:22;8.40;99.90
10051;DHT22;5065;46.942;7.432;2023-01-09T10:37:55;8.40;99.90
10051;DHT22;5065;46.942;7.432;2023-01-09T10:40:26;8.40;99.90
10051;DHT22;5065;46.942;7.432;2023-01-09T10:42:59;8.40;99.90
10051;DHT22;5065;46.942;7.432;2023-01-09T10:45:34;8.40;99.90
10051;DHT22;5065;46.942;7.432;2023-01-09T10:48:10;8.50;99.90
10051;DHT22;5065;46.942;7.432;2023-01-09T10:50:42;8.40;99.90
10051;DHT22;5065;46.942;7.432;2023-01-09T10:53:17;8.40;99.90
10051;DHT22;5065;46.942;7.432;2023-01-09T10:55:46;8.40;99.90
10051;DHT22;5065;46.942;7.432;2023-01-09T10:58:16;8.40;99.90
10051;DHT22;5065;46.942;7.432;2023-01-09T11:00:44;8.40;99.90
10051;DHT22;5065;46.942;7.432;2023-01-09T11:03:12;8.40;99.90
10051;DHT22;5065;46.942;7.432;2023-01-09T11:05:40;8.40;99.90
10051;DHT22;5065;46.942;7.432;2023-01-09T11:08:16;8.40;99.90
10051;DHT22;5065;46.942;7.432;2023-01-09T11:10:47;8.40;99.90
10051;DHT22;5065;46.942;7.432;2023-01-09T11:13:20;8.40;99.90
10051;DHT22;5065;46.942;7.432;2023-01-09T11:16:03;8.40;99.90
10051;DHT22;5065;46.942;7.432;2023-01-09T11:18:32;8.40;99.90
10051;DHT22;5065;46.942;7.432;2023-01-09T11:21:17;8.40;99.90
10051;DHT22;5065;46.942;7.432;2023-01-09T11:23:52;8.40;99.90
10051;DHT22;5065;46.942;7.432;2023-01-09T11:26:23;8.30;99.90
10051;DHT22;5065;46.942;7.432;2023-01-09T11:29:05;8.30;99.90
10051;DHT22;5065;46.942;7.432;2023-01-09T11:31:34;8.30;99.90
10051;DHT22;5065;46.942;7.432;2023-01-09T11:34:02;8.30;99.90
10051;DHT22;5065;46.942;7.432;2023-01-09T11:36:30;8.40;99.90
10051;DHT22;5065;46.942;7.432;2023-01-09T11:38:59;8.40;99.90
10051;DHT22;5065;46.942;7.432;2023-01-09T11:41:29;8.50;99.90
10051;DHT22;5065;46.942;7.432;2023-01-09T11:43:59;8.50;99.90
10051;DHT22;5065;46.942;7.432;2023-01-09T11:46:35;8.60;99.90
10051;DHT22;5065;46.942;7.432;2023-01-09T11:49:05;8.60;99.90
10051;DHT22;5065;46.942;7.432;2023-01-09T11:51:45;8.60;99.90
10051;DHT22;5065;46.942;7.432;2023-01-09T11:54:18;8.60;99.90
10051;DHT22;5065;46.942;7.432;2023-01-09T11:56:48;8.70;99.90
10051;DHT22;5065;46.942;7.432;2023-01-09T11:59:20;8.70;99.90
10051;DHT22;5065;46.942;7.432;2023-01-09T12:02:20;8.70;99.90
10051;DHT22;5065;46.942;7.432;2023-01-09T12:04:53;8.60;99.90
10051;DHT22;5065;46.942;7.432;2023-01-09T12:07:54;8.50;99.90
10051;DHT22;5065;46.942;7.432;2023-01-09T12:10:57;8.50;99.90
10051;DHT22;5065;46.942;7.432;2023-01-09T12:13:44;8.50;99.90
10051;DHT22;5065;46.942;7.432;2023-01-09T12:16:24;8.40;99.90
10051;DHT22;5065;46.942;7.432;2023-01-09T12:19:04;8.40;99.90
10051;DHT22;5065;46.942;7.432;2023-01-09T12:21:34;8.40;99.90
10051;DHT22;5065;46.942;7.432;2023-01-09T12:24:32;8.40;99.90
10051;DHT22;5065;46.942;7.432;2023-01-09T12:27:13;8.40;99.90
10051;DHT22;5065;46.942;7.432;2023-01-09T12:30:00;8.40;99.90
10051;DHT22;5065;46.942;7.432;2023-01-09T12:32:45;8.40;99.90
10051;DHT22;5065;46.942;7.432;2023-01-09T12:35:22;8.40;99.90
10051;DHT22;5065;46.942;7.432;2023-01-09T12:38:17;8.30;99.90
10051;DHT22;5065;46.942;7.432;2023-01-09T12:41:23;8.40;99.90
10051;DHT22;5065;46.942;7.432;2023-01-09T12:44:07;8.50;99.90
10051;DHT22;5065;46.942;7.432;2023-01-09T12:46:48;8.60;99.90
10051;DHT22;5065;46.942;7.432;2023-01-09T12:49:26;8.70;99.90
10051;DHT22;5065;46.942;7.432;2023-01-09T12:51:58;8.60;99.90
10051;DHT22;5065;46.942;7.432;2023-01-09T12:54:32;8.60;99.90
10051;DHT22;5065;46.942;7.432;2023-01-09T12:57:02;8.60;99.90
10051;DHT22;5065;46.942;7.432;2023-01-09T12:59:37;8.60;99.90
10051;DHT22;5065;46.942;7.432;2023-01-09T13:02:15;8.60;99.90
10051;DHT22;5065;46.942;7.432;2023-01-09T13:04:48;8.60;99.90
10051;DHT22;5065;46.942;7.432;2023-01-09T13:07:21;8.60;99.90
10051;DHT22;5065;46.942;7.432;2023-01-09T13:09:52;8.60;99.90
10051;DHT22;5065;46.942;7.432;2023-01-09T13:12:22;8.60;99.90
10051;DHT22;5065;46.942;7.432;2023-01-09T13:14:55;8.60;99.90
10051;DHT22;5065;46.942;7.432;2023-01-09T13:17:28;8.60;99.90
10051;DHT22;5065;46.942;7.432;2023-01-09T13:19:56;8.60;99.90
10051;DHT22;5065;46.942;7.432;2023-01-09T13:22:25;8.60;99.90
10051;DHT22;5065;46.942;7.432;2023-01-09T13:25:06;8.60;99.90
10051;DHT22;5065;46.942;7.432;2023-01-09T13:27:47;8.50;99.90
10051;DHT22;5065;46.942;7.432;2023-01-09T13:30:21;8.50;99.90
10051;DHT22;5065;46.942;7.432;2023-01-09T13:32:59;8.50;99.90
10051;DHT22;5065;46.942;7.432;2023-01-09T13:35:30;8.50;99.90
10051;DHT22;5065;46.942;7.432;2023-01-09T13:37:57;8.50;99.90
10051;DHT22;5065;46.942;7.432;2023-01-09T13:40:28;8.40;99.90
10051;DHT22;5065;46.942;7.432;2023-01-09T13:43:00;8.40;99.90
10051;DHT22;5065;46.942;7.432;2023-01-09T13:45:32;8.40;99.90
10051;DHT22;5065;46.942;7.432;2023-01-09T13:48:27;8.40;99.90
10051;DHT22;5065;46.942;7.432;2023-01-09T13:54:08;8.30;99.90
10051;DHT22;5065;46.942;7.432;2023-01-09T13:59:35;8.20;99.90
10051;DHT22;5065;46.942;7.432;2023-01-09T14:05:13;8.10;99.90
10051;DHT22;5065;46.942;7.432;2023-01-09T14:07:41;8.00;99.90
10051;DHT22;5065;46.942;7.432;2023-01-09T14:10:22;7.90;99.90
10051;DHT22;5065;46.942;7.432;2023-01-09T14:12:51;7.90;99.90
10051;DHT22;5065;46.942;7.432;2023-01-09T14:15:24;7.90;99.90
10051;DHT22;5065;46.942;7.432;2023-01-09T14:17:59;7.90;99.90
10051;DHT22;5065;46.942;7.432;2023-01-09T14:20:32;7.90;99.90
10051;DHT22;5065;46.942;7.432;2023-01-09T14:23:01;7.80;99.90
10051;DHT22;5065;46.942;7.432;2023-01-09T14:25:30;7.90;99.90
10051;DHT22;5065;46.942;7.432;2023-01-09T14:28:19;7.80;99.90
10051;DHT22;5065;46.942;7.432;2023-01-09T14:31:09;7.80;99.90
10051;DHT22;5065;46.942;7.432;2023-01-09T14:34:16;7.80;99.90
10051;DHT22;5065;46.942;7.432;2023-01-09T14:36:51;7.80;99.90
10051;DHT22;5065;46.942;7.432;2023-01-09T14:39:21;7.70;99.90
10051;DHT22;5065;46.942;7.432;2023-01-09T14:41:52;7.70;99.90
10051;DHT22;5065;46.942;7.432;2023-01-09T14:44:43;7.70;99.90
10051;DHT22;5065;46.942;7.432;2023-01-09T14:47:16;7.70;99.90
10051;DHT22;5065;46.942;7.432;2023-01-09T14:49:53;7.70;99.90
10051;DHT22;5065;46.942;7.432;2023-01-09T14:52:24;7.70;99.90
10051;DHT22;5065;46.942;7.432;2023-01-09T14:54:56;7.70;99.90
10051;DHT22;5065;46.942;7.432;2023-01-09T14:57:25;7.60;99.90
10051;DHT22;5065;46.942;7.432;2023-01-09T14:59:57;7.60;99.90
10051;DHT22;5065;46.942;7.432;2023-01-09T15:02:27;7.60;99.90
10051;DHT22;5065;46.942;7.432;2023-01-09T15:05:01;7.50;99.90
10051;DHT22;5065;46.942;7.432;2023-01-09T15:07:31;7.50;99.90
10051;DHT22;5065;46.942;7.432;2023-01-09T15:10:06;7.40;99.90
10051;DHT22;5065;46.942;7.432;2023-01-09T15:12:39;7.50;99.90
10051;DHT22;5065;46.942;7.432;2023-01-09T15:15:11;7.40;99.90
10051;DHT22;5065;46.942;7.432;2023-01-09T15:17:40;7.40;99.90
10051;DHT22;5065;46.942;7.432;2023-01-09T15:20:17;7.40;99.90
10051;DHT22;5065;46.942;7.432;2023-01-09T15:22:48;7.40;99.90
10051;DHT22;5065;46.942;7.432;2023-01-09T15:25:24;7.30;99.90
10051;DHT22;5065;46.942;7.432;2023-01-09T15:27:53;7.40;99.90
10051;DHT22;5065;46.942;7.432;2023-01-09T15:30:25;7.40;99.90
10051;DHT22;5065;46.942;7.432;2023-01-09T15:33:00;7.30;99.90
10051;DHT22;5065;46.942;7.432;2023-01-09T15:35:29;7.30;99.90
10051;DHT22;5065;46.942;7.432;2023-01-09T15:37:57;7.30;99.90
10051;DHT22;5065;46.942;7.432;2023-01-09T15:40:32;7.20;99.90
10051;DHT22;5065;46.942;7.432;2023-01-09T15:43:00;7.20;99.90
10051;DHT22;5065;46.942;7.432;2023-01-09T15:45:32;7.20;99.90
10051;DHT22;5065;46.942;7.432;2023-01-09T15:48:21;7.20;99.90
10051;DHT22;5065;46.942;7.432;2023-01-09T15:50:54;7.20;99.90
10051;DHT22;5065;46.942;7.432;2023-01-09T15:53:24;7.20;99.90
10051;DHT22;5065;46.942;7.432;2023-01-09T15:56:11;7.20;99.90
10051;DHT22;5065;46.942;7.432;2023-01-09T15:58:42;7.10;99.90
10051;DHT22;5065;46.942;7.432;2023-01-09T16:01:23;7.10;99.90
10051;DHT22;5065;46.942;7.432;2023-01-09T16:03:53;7.10;99.90
10051;DHT22;5065;46.942;7.432;2023-01-09T16:06:26;7.20;99.90
10051;DHT22;5065;46.942;7.432;2023-01-09T16:08:56;7.20;99.90
10051;DHT22;5065;46.942;7.432;2023-01-09T16:11:26;7.20;99.90
10051;DHT22;5065;46.942;7.432;2023-01-09T16:13:55;7.20;99.90
10051;DHT22;5065;46.942;7.432;2023-01-09T16:16:26;7.20;99.90
10051;DHT22;5065;46.942;7.432;2023-01-09T16:18:55;7.30;99.90
10051;DHT22;5065;46.942;7.432;2023-01-09T16:21:30;7.30;99.90
10051;DHT22;5065;46.942;7.432;2023-01-09T16:23:59;7.20;99.90
10051;DHT22;5065;46.942;7.432;2023-01-09T16:26:29;7.20;99.90
10051;DHT22;5065;46.942;7.432;2023-01-09T16:29:26;7.20;99.90
10051;DHT22;5065;46.942;7.432;2023-01-09T16:32:01;7.20;99.90
10051;DHT22;5065;46.942;7.432;2023-01-09T16:34:28;7.10;99.90
10051;DHT22;5065;46.942;7.432;2023-01-09T16:36:57;7.10;99.90
10051;DHT22;5065;46.942;7.432;2023-01-09T16:39:27;7.10;99.90
10051;DHT22;5065;46.942;7.432;2023-01-09T16:41:55;7.10;99.90
10051;DHT22;5065;46.942;7.432;2023-01-09T16:44:40;7.10;99.90